Time;durP1;ratioP1;P1;durP2;ratioP2;P2;SDS_P1;SDS_P2;PMS_P1;PMS_P2;Temp;Humidity;BMP_temperature;BMP_pressure;BME280_temperature;BME280_humidity;BME280_pressure;Samples;Min_cycle;Max_cycle;Signal;HPM_P1;HPM_P2
2023/07/30 00:01:56;;;;;;;2.85;2.47;;;18.40;99.90;;;;;;5018770;28;20033;-66
2023/07/30 00:04:22;;;;;;;4.43;2.30;;;18.50;99.90;;;;;;5015346;28;20405;-66
2023/07/30 00:06:47;;;;;;;4.85;2.33;;;18.40;99.90;;;;;;5012819;28;20119;-67
2023/07/30 00:09:13;;;;;;;2.85;2.50;;;18.40;99.90;;;;;;5013302;28;20037;-67
2023/07/30 00:11:39;;;;;;;3.72;2.33;;;18.40;99.90;;;;;;5008759;28;20038;-66
2023/07/30 00:14:05;;;;;;;4.43;2.30;;;18.40;99.90;;;;;;5011706;28;20030;-66
2023/07/30 00:16:31;;;;;;;4.28;2.70;;;18.40;99.90;;;;;;5005254;28;20061;-66
2023/07/30 00:18:57;;;;;;;2.50;2.30;;;18.30;99.90;;;;;;5007805;28;20478;-67
2023/07/30 00:21:22;;;;;;;2.65;2.45;;;18.30;99.90;;;;;;5023249;28;20052;-66
2023/07/30 00:23:48;;;;;;;2.60;2.40;;;18.30;99.90;;;;;;5021237;28;20037;-66
2023/07/30 00:26:14;;;;;;;2.70;2.50;;;18.30;99.90;;;;;;5010792;28;20042;-67
2023/07/30 00:28:40;;;;;;;2.53;2.28;;;18.20;99.90;;;;;;4992887;28;20034;-67
2023/07/30 00:31:06;;;;;;;3.10;2.45;;;18.30;99.90;;;;;;4998694;28;20049;-67
2023/07/30 00:33:32;;;;;;;2.35;2.15;;;18.20;99.90;;;;;;4987627;28;20034;-67
2023/07/30 00:35:57;;;;;;;4.90;2.35;;;18.20;99.90;;;;;;4993781;28;20033;-66
2023/07/30 00:38:23;;;;;;;3.55;2.30;;;18.20;99.90;;;;;;4997197;28;20515;-66
2023/07/30 00:40:49;;;;;;;2.42;1.88;;;18.20;99.90;;;;;;4991367;28;20459;-66
2023/07/30 00:43:15;;;;;;;3.20;2.30;;;18.20;99.90;;;;;;4985720;28;20047;-66
2023/07/30 00:45:44;;;;;;;2.45;2.25;;;18.20;99.90;;;;;;5012373;28;20057;-67
2023/07/30 00:48:11;;;;;;;2.75;2.40;;;18.20;99.90;;;;;;4993118;28;20032;-66
2023/07/30 00:50:38;;;;;;;2.92;2.40;;;18.20;99.90;;;;;;5007139;28;20081;-66
2023/07/30 00:53:04;;;;;;;2.47;2.28;;;18.10;99.90;;;;;;4982605;28;20572;-67
2023/07/30 00:55:30;;;;;;;4.13;2.45;;;18.10;99.90;;;;;;4999164;28;20061;-66
2023/07/30 00:57:57;;;;;;;2.70;2.42;;;18.10;99.90;;;;;;5015374;28;20037;-67
2023/07/30 01:00:24;;;;;;;5.72;2.80;;;18.10;99.90;;;;;;4987177;28;20748;-65
2023/07/30 01:02:51;;;;;;;5.35;2.20;;;18.10;99.90;;;;;;5000362;28;20128;-67
2023/07/30 01:05:17;;;;;;;2.83;2.13;;;18.00;99.90;;;;;;4981522;28;20041;-66
2023/07/30 01:07:43;;;;;;;2.65;2.25;;;18.00;99.90;;;;;;4992548;28;20034;-67
2023/07/30 01:10:09;;;;;;;2.53;1.92;;;17.90;99.90;;;;;;5001755;28;20030;-66
2023/07/30 01:12:36;;;;;;;2.50;2.30;;;17.90;99.90;;;;;;5007407;28;20444;-66
2023/07/30 01:15:04;;;;;;;2.20;2.00;;;17.90;99.90;;;;;;5008006;28;20038;-66
2023/07/30 01:17:30;;;;;;;2.92;2.53;;;17.90;99.90;;;;;;5017326;28;20033;-66
2023/07/30 01:19:56;;;;;;;2.72;2.17;;;17.90;99.90;;;;;;5016042;28;20034;-66
2023/07/30 01:22:24;;;;;;;3.10;2.08;;;17.80;99.90;;;;;;5010714;28;20103;-66
2023/07/30 01:24:51;;;;;;;4.00;2.45;;;17.80;99.90;;;;;;5005311;28;20136;-66
2023/07/30 01:27:28;;;;;;;3.70;2.55;;;17.80;99.90;;;;;;4971067;28;20034;-66
2023/07/30 01:30:22;;;;;;;2.60;2.40;;;17.70;99.90;;;;;;5005920;28;20049;-67
2023/07/30 01:32:52;;;;;;;2.90;2.33;;;17.70;99.90;;;;;;5009966;28;20029;-66
2023/07/30 01:35:24;;;;;;;2.55;2.35;;;17.70;99.90;;;;;;4993215;28;20030;-66
2023/07/30 01:37:51;;;;;;;3.65;2.53;;;17.70;99.90;;;;;;4995262;28;20556;-66
2023/07/30 01:40:17;;;;;;;2.58;2.38;;;17.70;99.90;;;;;;4995296;28;20145;-66
2023/07/30 01:42:43;;;;;;;3.10;2.80;;;17.70;99.90;;;;;;5004626;28;20164;-67
2023/07/30 01:45:09;;;;;;;3.38;2.75;;;17.70;99.90;;;;;;4989124;28;20121;-66
2023/07/30 01:47:35;;;;;;;4.35;2.65;;;17.70;99.90;;;;;;4984753;28;20057;-67
2023/07/30 01:50:01;;;;;;;4.63;2.75;;;17.70;99.90;;;;;;4989079;28;20030;-66
2023/07/30 01:52:26;;;;;;;4.32;2.40;;;17.70;99.90;;;;;;4995025;28;20835;-66
2023/07/30 01:54:52;;;;;;;4.32;2.65;;;17.70;99.90;;;;;;5014078;28;20039;-66
2023/07/30 01:57:18;;;;;;;2.83;2.50;;;17.60;99.90;;;;;;5002158;28;20568;-66
2023/07/30 01:59:44;;;;;;;2.70;2.50;;;17.60;99.90;;;;;;5002315;28;20038;-66
2023/07/30 02:02:10;;;;;;;3.15;2.58;;;17.60;99.90;;;;;;4993965;28;20070;-66
2023/07/30 02:04:36;;;;;;;8.38;3.00;;;17.70;99.90;;;;;;4997970;28;20029;-66
2023/07/30 02:07:01;;;;;;;4.45;2.85;;;17.60;99.90;;;;;;5015137;28;20026;-66
2023/07/30 02:09:27;;;;;;;2.00;1.80;;;17.60;99.90;;;;;;5005918;28;20765;-66
2023/07/30 02:11:53;;;;;;;3.53;2.25;;;17.60;99.90;;;;;;5011634;28;20568;-66
2023/07/30 02:14:19;;;;;;;3.30;1.90;;;17.60;99.90;;;;;;5002882;28;20410;-66
2023/07/30 02:16:48;;;;;;;2.95;2.30;;;17.50;99.90;;;;;;4993302;28;20065;-66
2023/07/30 02:19:13;;;;;;;2.65;2.40;;;17.50;99.90;;;;;;4991393;28;20107;-66
2023/07/30 02:21:42;;;;;;;2.65;2.40;;;17.40;99.90;;;;;;5003456;28;20800;-66
2023/07/30 02:24:11;;;;;;;3.25;2.47;;;17.50;99.90;;;;;;4996746;28;20037;-67
2023/07/30 02:26:37;;;;;;;3.95;2.53;;;17.40;99.90;;;;;;5014763;28;20032;-67
2023/07/30 02:29:02;;;;;;;3.00;2.70;;;17.50;99.90;;;;;;5000826;28;20113;-66
2023/07/30 02:31:28;;;;;;;3.05;2.40;;;17.50;99.90;;;;;;5007622;28;20602;-67
2023/07/30 02:33:54;;;;;;;2.80;2.60;;;17.50;99.90;;;;;;5013629;28;20413;-66
2023/07/30 02:36:20;;;;;;;3.30;3.00;;;17.40;99.90;;;;;;4992205;28;20463;-67
2023/07/30 02:38:46;;;;;;;2.90;2.67;;;17.50;99.90;;;;;;5009181;28;20040;-67
2023/07/30 02:41:11;;;;;;;3.70;2.97;;;17.50;99.90;;;;;;5010406;28;20034;-66
2023/07/30 02:43:37;;;;;;;3.13;2.90;;;17.50;99.90;;;;;;5014173;28;20037;-67
2023/07/30 02:46:03;;;;;;;3.50;3.20;;;17.50;99.90;;;;;;4998115;28;20441;-67
2023/07/30 02:48:28;;;;;;;3.00;2.70;;;17.50;99.90;;;;;;5000246;28;20091;-66
2023/07/30 02:50:54;;;;;;;3.72;3.15;;;17.50;99.90;;;;;;4998486;28;20052;-66
2023/07/30 02:53:20;;;;;;;5.30;3.20;;;17.50;99.90;;;;;;4990971;28;20044;-66
2023/07/30 02:55:46;;;;;;;3.50;3.00;;;17.50;99.90;;;;;;4988810;28;20761;-66
2023/07/30 02:58:11;;;;;;;3.17;2.88;;;17.50;99.90;;;;;;5009517;28;20116;-67
2023/07/30 03:00:37;;;;;;;4.40;2.88;;;17.50;99.90;;;;;;5016442;28;20033;-66
2023/07/30 03:03:04;;;;;;;4.00;3.10;;;17.50;99.90;;;;;;4999616;28;20104;-66
2023/07/30 03:05:30;;;;;;;3.28;2.97;;;17.50;99.90;;;;;;5004901;28;20030;-66
2023/07/30 03:07:56;;;;;;;2.95;2.75;;;17.50;99.90;;;;;;4999268;28;20038;-66
2023/07/30 03:10:22;;;;;;;3.75;3.38;;;17.50;99.90;;;;;;4999175;28;20037;-66
2023/07/30 03:12:47;;;;;;;3.10;2.80;;;17.50;99.90;;;;;;5012941;28;20041;-66
2023/07/30 03:15:13;;;;;;;3.85;3.08;;;17.50;99.90;;;;;;5013891;28;20040;-66
2023/07/30 03:17:39;;;;;;;3.15;2.85;;;17.50;99.90;;;;;;5012841;28;20030;-66
2023/07/30 03:20:06;;;;;;;8.95;3.55;;;17.50;99.90;;;;;;5017680;28;20033;-67
2023/07/30 03:22:32;;;;;;;4.32;3.53;;;17.50;99.90;;;;;;4982030;28;20029;-66
2023/07/30 03:24:57;;;;;;;3.72;3.42;;;17.40;99.90;;;;;;4986955;28;20030;-66
2023/07/30 03:27:23;;;;;;;3.67;2.90;;;17.40;99.90;;;;;;4991078;28;20034;-67
2023/07/30 03:29:49;;;;;;;3.38;3.05;;;17.40;99.90;;;;;;5008984;28;20552;-66
2023/07/30 03:32:15;;;;;;;3.90;3.20;;;17.40;99.90;;;;;;4997433;28;20037;-66
2023/07/30 03:34:40;;;;;;;3.20;2.90;;;17.40;99.90;;;;;;4998826;28;20132;-66
2023/07/30 03:37:06;;;;;;;3.72;3.35;;;17.40;99.90;;;;;;5012039;28;20041;-66
2023/07/30 03:39:32;;;;;;;3.67;3.35;;;17.40;99.90;;;;;;4998433;28;20043;-67
2023/07/30 03:41:58;;;;;;;4.97;4.20;;;17.40;99.90;;;;;;4991548;28;20033;-66
2023/07/30 03:44:23;;;;;;;3.88;3.58;;;17.40;99.90;;;;;;4993871;28;20034;-67
2023/07/30 03:46:49;;;;;;;5.32;4.20;;;17.40;99.90;;;;;;4999633;28;20038;-67
2023/07/30 03:49:15;;;;;;;4.10;3.70;;;17.40;99.90;;;;;;4991312;28;20128;-67
2023/07/30 03:51:41;;;;;;;4.40;4.00;;;17.40;99.90;;;;;;5004281;28;20034;-67
2023/07/30 03:54:06;;;;;;;4.75;3.80;;;17.40;99.90;;;;;;5008168;28;20041;-67
2023/07/30 03:56:32;;;;;;;4.72;3.92;;;17.40;99.90;;;;;;5011240;28;20036;-66
2023/07/30 03:58:58;;;;;;;4.78;4.05;;;17.50;99.90;;;;;;5012078;28;20568;-66
2023/07/30 04:01:24;;;;;;;4.00;3.60;;;17.50;99.90;;;;;;5006378;28;20036;-67
2023/07/30 04:03:50;;;;;;;4.53;4.13;;;17.60;99.90;;;;;;4991698;28;20034;-67
2023/07/30 04:06:16;;;;;;;4.20;3.80;;;17.60;99.90;;;;;;4995728;28;20442;-67
2023/07/30 04:08:42;;;;;;;4.18;3.80;;;17.70;99.90;;;;;;5009681;28;20173;-67
2023/07/30 04:11:08;;;;;;;3.92;3.63;;;17.70;99.90;;;;;;5009342;28;20071;-67
2023/07/30 04:13:34;;;;;;;4.25;3.85;;;17.80;99.90;;;;;;5017609;28;20117;-67
2023/07/30 04:16:00;;;;;;;4.53;4.13;;;17.80;99.90;;;;;;4998708;28;20029;-67
2023/07/30 04:18:26;;;;;;;5.30;4.00;;;17.80;99.90;;;;;;5009073;28;20630;-67
2023/07/30 04:20:55;;;;;;;4.80;3.92;;;17.90;99.90;;;;;;5000635;28;20477;-66
2023/07/30 04:23:21;;;;;;;5.03;3.58;;;17.90;99.90;;;;;;5000471;28;20030;-66
2023/07/30 04:25:50;;;;;;;4.05;3.75;;;17.90;99.90;;;;;;5008948;28;20033;-66
2023/07/30 04:28:16;;;;;;;3.63;3.30;;;17.90;99.90;;;;;;4998263;28;20623;-67
2023/07/30 04:30:42;;;;;;;4.00;3.50;;;18.00;99.90;;;;;;4998047;28;20481;-66
2023/07/30 04:33:08;;;;;;;4.88;3.70;;;18.00;99.90;;;;;;5009545;28;20044;-66
2023/07/30 04:35:36;;;;;;;3.95;3.65;;;18.00;99.90;;;;;;4989057;28;20026;-66
2023/07/30 04:38:02;;;;;;;6.15;3.50;;;18.00;99.90;;;;;;4993653;28;20053;-67
2023/07/30 04:40:29;;;;;;;3.67;3.38;;;18.10;99.90;;;;;;5001178;28;20026;-66
2023/07/30 04:42:55;;;;;;;3.65;3.35;;;18.10;99.90;;;;;;5012450;28;20088;-67
2023/07/30 04:45:21;;;;;;;3.35;3.05;;;18.10;99.90;;;;;;4982710;28;20493;-66
2023/07/30 04:47:51;;;;;;;2.63;2.42;;;18.10;99.90;;;;;;4995573;28;20041;-66
2023/07/30 04:50:16;;;;;;;3.05;2.75;;;18.10;99.90;;;;;;4995701;28;20029;-66
2023/07/30 04:52:42;;;;;;;3.42;3.13;;;18.20;99.90;;;;;;4998127;28;20148;-66
2023/07/30 04:55:08;;;;;;;4.50;3.88;;;18.20;99.90;;;;;;5001737;28;20048;-66
2023/07/30 04:57:34;;;;;;;5.18;3.63;;;18.20;99.90;;;;;;5008952;28;20040;-67
2023/07/30 05:00:01;;;;;;;4.10;3.65;;;18.30;99.90;;;;;;4991280;28;20121;-66
2023/07/30 05:02:27;;;;;;;8.05;3.78;;;18.30;99.90;;;;;;5011306;28;20102;-66
2023/07/30 05:04:53;;;;;;;3.92;3.53;;;18.40;99.90;;;;;;5022753;28;20461;-66
2023/07/30 05:07:18;;;;;;;6.20;3.95;;;18.50;99.90;;;;;;5017926;28;20124;-66
2023/07/30 05:09:44;;;;;;;4.43;3.92;;;18.60;99.90;;;;;;5010656;28;20077;-66
2023/07/30 05:12:10;;;;;;;5.43;4.40;;;18.70;99.90;;;;;;4992717;28;20045;-67
2023/07/30 05:14:36;;;;;;;6.93;4.00;;;18.80;99.90;;;;;;5004900;28;20038;-66
2023/07/30 05:17:02;;;;;;;4.93;4.00;;;18.80;99.90;;;;;;5011749;28;20030;-67
2023/07/30 05:19:28;;;;;;;3.88;3.50;;;18.90;99.90;;;;;;5000752;28;20037;-66
2023/07/30 05:21:55;;;;;;;5.25;3.90;;;18.90;99.90;;;;;;4996208;28;20042;-66
2023/07/30 05:24:20;;;;;;;3.78;3.47;;;18.90;99.90;;;;;;4996890;28;20395;-66
2023/07/30 05:26:46;;;;;;;3.58;3.28;;;18.90;99.90;;;;;;5013332;28;20038;-66
2023/07/30 05:29:12;;;;;;;3.92;3.30;;;18.90;99.90;;;;;;5011756;28;20044;-67
2023/07/30 05:31:38;;;;;;;4.35;3.38;;;18.90;99.90;;;;;;5004916;28;20854;-66
2023/07/30 05:34:03;;;;;;;5.28;3.38;;;18.90;99.90;;;;;;5010085;28;20033;-67
2023/07/30 05:36:30;;;;;;;4.57;3.42;;;19.00;99.90;;;;;;5009406;28;20030;-66
2023/07/30 05:38:55;;;;;;;3.65;3.35;;;19.20;99.90;;;;;;5009192;28;20481;-66
2023/07/30 05:41:21;;;;;;;3.47;3.17;;;19.20;99.90;;;;;;4994265;28;20034;-67
2023/07/30 05:43:48;;;;;;;3.15;2.85;;;19.30;99.90;;;;;;5007839;28;20081;-66
2023/07/30 05:46:14;;;;;;;2.80;2.60;;;19.40;99.90;;;;;;5008530;28;20077;-67
2023/07/30 05:48:40;;;;;;;3.33;3.00;;;19.40;99.90;;;;;;5008828;28;20034;-66
2023/07/30 05:51:06;;;;;;;4.10;3.05;;;19.50;99.90;;;;;;5013313;28;20030;-67
2023/07/30 05:53:32;;;;;;;5.28;2.95;;;19.50;99.90;;;;;;5007784;28;20648;-66
2023/07/30 05:55:57;;;;;;;3.25;2.95;;;19.50;99.90;;;;;;5007665;28;20033;-66
2023/07/30 05:58:23;;;;;;;3.45;3.15;;;19.50;99.90;;;;;;5010806;28;20034;-67
2023/07/30 06:00:49;;;;;;;2.72;2.53;;;19.50;99.90;;;;;;5015191;28;20038;-66
2023/07/30 06:03:14;;;;;;;3.30;3.00;;;19.60;99.90;;;;;;5011650;28;20092;-66
2023/07/30 06:05:41;;;;;;;3.53;3.22;;;19.60;99.90;;;;;;5014651;28;20033;-66
2023/07/30 06:08:07;;;;;;;4.82;3.00;;;19.70;99.90;;;;;;4994918;28;20132;-67
2023/07/30 06:10:36;;;;;;;3.88;2.83;;;19.80;99.90;;;;;;5006752;28;20037;-67
2023/07/30 06:13:03;;;;;;;2.88;2.67;;;19.90;99.90;;;;;;5010762;28;20034;-67
2023/07/30 06:15:30;;;;;;;3.28;2.38;;;20.00;99.90;;;;;;5022712;28;20104;-67
2023/07/30 06:17:55;;;;;;;3.78;2.78;;;20.00;99.90;;;;;;5012234;28;20064;-67
2023/07/30 06:20:21;;;;;;;2.63;2.42;;;20.10;99.90;;;;;;5012133;28;20676;-67
2023/07/30 06:22:47;;;;;;;5.07;2.83;;;20.10;99.90;;;;;;5012747;28;20371;-67
2023/07/30 06:25:13;;;;;;;3.58;2.70;;;20.20;99.90;;;;;;5015907;28;20030;-67
2023/07/30 06:27:38;;;;;;;3.00;2.70;;;20.40;99.90;;;;;;5003895;28;20034;-67
2023/07/30 06:30:05;;;;;;;3.47;2.70;;;20.40;99.90;;;;;;5007014;28;20511;-67
2023/07/30 06:32:30;;;;;;;3.65;2.58;;;20.50;99.90;;;;;;5013896;28;20104;-67
2023/07/30 06:34:56;;;;;;;3.25;2.90;;;20.60;99.90;;;;;;5018895;28;20123;-67
2023/07/30 06:37:22;;;;;;;3.33;2.92;;;20.70;99.90;;;;;;5011808;28;20037;-66
2023/07/30 06:39:48;;;;;;;4.70;2.80;;;20.70;99.90;;;;;;5017511;28;20032;-67
2023/07/30 06:42:13;;;;;;;5.32;2.70;;;20.70;99.90;;;;;;5005577;28;20116;-67
2023/07/30 06:44:39;;;;;;;3.45;2.65;;;20.90;99.90;;;;;;5003736;28;20591;-67
2023/07/30 06:47:05;;;;;;;4.22;2.80;;;20.90;99.90;;;;;;5014983;28;20076;-67
2023/07/30 06:49:33;;;;;;;3.03;2.70;;;21.00;99.90;;;;;;5001365;28;20176;-67
2023/07/30 06:51:59;;;;;;;3.80;2.20;;;21.10;99.90;;;;;;5020242;28;20033;-66
2023/07/30 06:54:25;;;;;;;2.55;2.35;;;21.20;99.90;;;;;;5013656;28;20045;-67
2023/07/30 06:56:51;;;;;;;2.33;2.13;;;21.10;99.90;;;;;;5016416;28;20191;-67
2023/07/30 06:59:17;;;;;;;3.00;2.70;;;21.10;99.90;;;;;;5005255;28;20057;-68
2023/07/30 07:01:42;;;;;;;2.83;2.53;;;21.10;99.90;;;;;;5007853;28;20065;-67
2023/07/30 07:04:08;;;;;;;4.15;2.47;;;21.10;99.90;;;;;;5010630;28;20045;-67
2023/07/30 07:06:35;;;;;;;2.33;2.10;;;21.00;99.90;;;;;;5014755;28;20040;-67
2023/07/30 07:09:00;;;;;;;2.40;2.20;;;21.00;99.90;;;;;;5018216;28;20064;-66
2023/07/30 07:11:26;;;;;;;3.90;2.40;;;21.10;99.90;;;;;;5014518;28;20963;-66
2023/07/30 07:13:52;;;;;;;3.75;2.58;;;21.10;99.90;;;;;;5021561;28;20037;-67
2023/07/30 07:16:18;;;;;;;3.72;2.35;;;21.20;99.90;;;;;;5010335;28;20033;-66
2023/07/30 07:18:44;;;;;;;2.80;2.50;;;21.40;99.90;;;;;;5017485;28;20580;-67
2023/07/30 07:21:10;;;;;;;3.22;2.80;;;21.40;99.90;;;;;;5013680;28;20048;-67
2023/07/30 07:23:36;;;;;;;3.10;2.78;;;21.50;99.90;;;;;;5020859;28;20375;-67
2023/07/30 07:26:02;;;;;;;5.15;2.70;;;21.50;99.90;;;;;;4978022;28;20029;-67
2023/07/30 07:28:28;;;;;;;5.93;3.13;;;21.50;99.90;;;;;;5001170;28;20037;-66
2023/07/30 07:30:55;;;;;;;4.13;3.13;;;21.50;99.90;;;;;;5014061;28;20036;-67
2023/07/30 07:33:22;;;;;;;3.40;2.65;;;21.60;99.90;;;;;;5017327;28;20033;-67
2023/07/30 07:35:47;;;;;;;2.88;2.45;;;21.60;99.90;;;;;;4996584;28;20053;-66
2023/07/30 07:38:14;;;;;;;3.60;2.60;;;21.60;99.90;;;;;;5017304;28;20576;-67
2023/07/30 07:40:40;;;;;;;3.20;2.47;;;21.60;99.90;;;;;;5013773;28;20045;-66
2023/07/30 07:43:08;;;;;;;3.42;2.97;;;21.70;99.90;;;;;;5017612;28;20064;-67
2023/07/30 07:45:34;;;;;;;4.38;2.58;;;21.70;99.90;;;;;;5008272;28;20053;-67
2023/07/30 07:48:00;;;;;;;3.63;2.28;;;21.70;99.90;;;;;;5004591;28;20046;-67
2023/07/30 07:50:26;;;;;;;5.45;2.50;;;21.80;99.90;;;;;;4999603;28;20153;-67
2023/07/30 07:52:52;;;;;;;4.47;2.08;;;21.80;99.90;;;;;;5005543;28;20153;-67
2023/07/30 07:55:18;;;;;;;2.65;2.15;;;21.90;99.90;;;;;;5008804;28;20410;-66
2023/07/30 07:57:43;;;;;;;2.97;2.40;;;21.90;99.90;;;;;;5009731;28;20045;-66
2023/07/30 08:00:10;;;;;;;4.72;2.30;;;21.90;99.90;;;;;;5010410;28;20045;-67
2023/07/30 08:02:40;;;;;;;2.50;2.13;;;22.00;99.90;;;;;;5003190;28;20045;-66
2023/07/30 08:05:07;;;;;;;2.65;2.22;;;22.10;99.90;;;;;;5000695;28;20743;-66
2023/07/30 08:07:33;;;;;;;3.50;2.30;;;22.20;99.90;;;;;;5000884;28;20066;-66
2023/07/30 08:09:59;;;;;;;3.75;2.40;;;22.20;99.90;;;;;;5006062;28;20072;-68
2023/07/30 08:12:24;;;;;;;5.85;1.98;;;22.40;99.90;;;;;;5012780;28;20140;-67
2023/07/30 08:14:51;;;;;;;2.65;2.42;;;22.40;99.90;;;;;;5003712;28;20092;-67
2023/07/30 08:17:18;;;;;;;3.47;2.30;;;22.50;99.90;;;;;;4994682;28;20038;-66
2023/07/30 08:19:43;;;;;;;3.42;2.00;;;22.60;99.90;;;;;;5014203;28;20061;-66
2023/07/30 08:22:09;;;;;;;3.67;2.20;;;22.70;99.90;;;;;;5014324;28;20089;-67
2023/07/30 08:24:35;;;;;;;3.63;1.75;;;22.70;99.90;;;;;;5021460;28;20040;-68
2023/07/30 08:27:01;;;;;;;3.80;1.90;;;22.70;99.90;;;;;;5011458;28;20032;-67
2023/07/30 08:29:27;;;;;;;3.35;1.83;;;22.60;99.90;;;;;;5006196;28;20531;-67
2023/07/30 08:31:52;;;;;;;3.95;2.15;;;22.60;99.90;;;;;;4993460;28;20698;-66
2023/07/30 08:34:18;;;;;;;3.53;1.63;;;22.70;99.90;;;;;;5012766;28;20963;-66
2023/07/30 08:36:44;;;;;;;2.35;1.67;;;22.70;99.90;;;;;;5008444;28;20560;-67
2023/07/30 08:39:10;;;;;;;4.47;1.80;;;22.70;99.90;;;;;;5012950;28;20758;-66
2023/07/30 08:41:35;;;;;;;3.25;2.20;;;22.70;99.90;;;;;;5012762;28;20041;-67
2023/07/30 08:44:02;;;;;;;5.95;2.28;;;22.80;99.90;;;;;;5017131;28;20026;-67
2023/07/30 08:46:28;;;;;;;3.17;1.95;;;22.70;99.90;;;;;;5006693;28;20116;-67
2023/07/30 08:48:54;;;;;;;2.90;1.90;;;22.80;99.90;;;;;;5013975;28;20026;-66
2023/07/30 08:51:22;;;;;;;3.17;1.90;;;22.80;99.90;;;;;;4996583;28;20484;-67
2023/07/30 08:53:48;;;;;;;3.35;1.88;;;22.90;99.90;;;;;;5011821;28;20040;-67
2023/07/30 08:56:14;;;;;;;5.35;2.10;;;23.00;99.90;;;;;;4997990;28;20037;-67
2023/07/30 08:58:41;;;;;;;2.05;1.75;;;23.00;99.90;;;;;;5013196;28;20044;-68
2023/07/30 09:01:10;;;;;;;2.60;1.65;;;23.10;99.90;;;;;;5003584;28;20030;-67
2023/07/30 09:03:39;;;;;;;3.22;1.70;;;23.20;99.90;;;;;;5007751;28;20037;-66
2023/07/30 09:06:08;;;;;;;4.40;1.90;;;23.20;99.90;;;;;;5000758;28;20795;-66
2023/07/30 09:08:34;;;;;;;3.47;1.88;;;23.20;99.90;;;;;;5003493;28;20454;-67
2023/07/30 09:11:08;;;;;;;3.88;2.05;;;23.20;99.90;;;;;;5010576;28;20054;-68
2023/07/30 09:13:41;;;;;;;2.83;1.42;;;23.30;99.90;;;;;;5002563;28;20029;-67
2023/07/30 09:16:11;;;;;;;1.90;1.60;;;23.30;99.90;;;;;;5002819;28;20034;-67
2023/07/30 09:18:45;;;;;;;3.00;1.60;;;23.40;99.90;;;;;;5007370;28;20029;-67
2023/07/30 09:21:12;;;;;;;3.05;1.80;;;23.50;98.80;;;;;;4998107;28;20101;-67
2023/07/30 09:23:46;;;;;;;1.85;1.40;;;23.40;99.90;;;;;;4997674;28;20096;-67
2023/07/30 09:26:13;;;;;;;2.83;1.75;;;23.40;99.80;;;;;;5002986;28;20148;-68
2023/07/30 09:28:39;;;;;;;2.22;1.73;;;23.30;98.00;;;;;;5014236;28;20033;-72
2023/07/30 09:31:08;;;;;;;2.88;1.65;;;23.20;98.10;;;;;;4998992;28;20037;-67
2023/07/30 09:33:35;;;;;;;3.67;1.85;;;23.20;97.50;;;;;;4997191;28;20046;-67
2023/07/30 09:36:04;;;;;;;2.90;1.65;;;23.10;98.00;;;;;;5003148;28;20128;-67
2023/07/30 09:38:32;;;;;;;3.70;1.77;;;23.30;99.00;;;;;;5005338;28;20040;-67
2023/07/30 09:41:02;;;;;;;2.85;1.85;;;23.30;99.20;;;;;;4988051;28;20053;-67
2023/07/30 09:43:35;;;;;;;3.97;1.80;;;23.50;99.10;;;;;;5003454;28;20092;-67
2023/07/30 09:46:06;;;;;;;3.00;1.90;;;23.70;97.70;;;;;;5007625;28;20069;-67
2023/07/30 09:48:34;;;;;;;2.05;1.50;;;23.60;97.40;;;;;;5002376;28;20034;-67
2023/07/30 09:51:08;;;;;;;4.35;1.85;;;23.60;98.60;;;;;;5017730;28;20061;-67
2023/07/30 09:53:34;;;;;;;3.63;2.00;;;23.60;99.00;;;;;;5008470;28;20033;-67
2023/07/30 09:56:05;;;;;;;2.15;1.52;;;23.80;97.70;;;;;;5000780;28;20460;-67
2023/07/30 09:58:31;;;;;;;7.07;1.77;;;23.90;97.00;;;;;;4997930;28;20524;-66
2023/07/30 10:01:01;;;;;;;3.42;2.00;;;24.00;95.80;;;;;;5011265;28;20141;-67
2023/07/30 10:03:30;;;;;;;4.47;1.73;;;24.10;97.00;;;;;;5007585;28;20091;-66
2023/07/30 10:06:04;;;;;;;4.63;1.80;;;24.30;97.30;;;;;;5020568;28;20045;-67
2023/07/30 10:08:35;;;;;;;5.65;1.80;;;24.30;94.50;;;;;;5012979;28;20040;-66
2023/07/30 10:11:04;;;;;;;3.20;1.70;;;24.20;94.20;;;;;;5011302;28;20041;-66
2023/07/30 10:13:31;;;;;;;2.95;1.63;;;24.20;94.00;;;;;;4993210;28;20042;-66
2023/07/30 10:15:58;;;;;;;6.05;2.17;;;24.30;93.00;;;;;;5009408;28;20124;-67
2023/07/30 10:18:40;;;;;;;5.00;1.80;;;24.40;92.60;;;;;;5006321;28;20036;-67
2023/07/30 10:21:09;;;;;;;3.88;1.63;;;24.40;93.00;;;;;;4999276;28;20026;-67
2023/07/30 10:23:35;;;;;;;7.43;1.88;;;24.40;93.20;;;;;;5005576;28;20655;-66
2023/07/30 10:26:10;;;;;;;3.42;1.65;;;24.50;93.80;;;;;;5015755;28;20028;-67
2023/07/30 10:28:38;;;;;;;3.72;1.73;;;24.70;93.90;;;;;;5007714;28;20065;-67
2023/07/30 10:31:08;;;;;;;3.00;1.50;;;24.70;91.40;;;;;;4999972;28;20508;-67
2023/07/30 10:33:49;;;;;;;3.15;1.67;;;24.70;92.30;;;;;;5012135;28;20819;-67
2023/07/30 10:36:33;;;;;;;3.83;1.60;;;24.60;91.60;;;;;;4997533;28;20034;-67
2023/07/30 10:39:25;;;;;;;3.83;1.70;;;24.60;91.60;;;;;;5013592;28;20053;-67
2023/07/30 10:41:56;;;;;;;4.50;1.92;;;24.60;91.60;;;;;;5017108;28;20111;-67
2023/07/30 10:44:26;;;;;;;3.05;1.88;;;24.60;90.30;;;;;;5003294;28;20112;-66
2023/07/30 10:46:56;;;;;;;2.45;1.60;;;24.80;91.90;;;;;;5010166;28;20033;-66
2023/07/30 10:49:23;;;;;;;5.25;1.90;;;24.90;90.20;;;;;;5004461;28;20041;-67
2023/07/30 10:51:50;;;;;;;3.83;1.65;;;24.90;89.80;;;;;;5011964;28;20030;-67
2023/07/30 10:54:16;;;;;;;5.47;1.70;;;25.00;90.10;;;;;;5014496;28;20440;-66
2023/07/30 10:56:42;;;;;;;6.55;1.98;;;25.00;89.80;;;;;;5013002;28;20068;-67
2023/07/30 10:59:08;;;;;;;4.93;2.00;;;25.10;90.50;;;;;;5016884;28;20034;-67
2023/07/30 11:01:39;;;;;;;4.20;1.70;;;25.10;91.10;;;;;;5008076;28;20030;-67
2023/07/30 11:04:17;;;;;;;5.78;2.78;;;25.10;89.50;;;;;;5004669;28;20029;-67
2023/07/30 11:06:51;;;;;;;3.65;1.58;;;25.10;86.90;;;;;;4998520;28;20033;-67
2023/07/30 11:09:25;;;;;;;4.50;1.88;;;25.10;88.70;;;;;;5013086;28;20909;-67
2023/07/30 11:11:52;;;;;;;3.90;1.77;;;25.10;90.40;;;;;;5012452;28;20939;-67
2023/07/30 11:14:20;;;;;;;5.22;2.00;;;25.20;90.60;;;;;;5015137;28;20038;-67
2023/07/30 11:16:55;;;;;;;3.85;1.77;;;25.30;90.50;;;;;;5011340;28;20040;-67
2023/07/30 11:19:21;;;;;;;3.58;1.60;;;25.50;90.70;;;;;;5007495;28;20057;-66
2023/07/30 11:21:48;;;;;;;3.83;1.55;;;25.50;88.40;;;;;;5005018;28;20565;-67
2023/07/30 11:24:14;;;;;;;4.88;1.80;;;25.50;84.30;;;;;;5003467;28;20266;-67
2023/07/30 11:26:40;;;;;;;4.35;1.90;;;25.40;85.60;;;;;;5020567;28;20033;-66
2023/07/30 11:29:16;;;;;;;2.83;1.55;;;25.30;84.10;;;;;;5002674;28;20854;-66
2023/07/30 11:31:46;;;;;;;5.30;1.52;;;25.30;86.20;;;;;;5006234;28;20033;-66
2023/07/30 11:34:13;;;;;;;4.70;1.75;;;25.30;85.60;;;;;;5013247;28;20136;-67
2023/07/30 11:36:40;;;;;;;5.20;1.55;;;25.30;84.00;;;;;;5002299;28;20649;-67
2023/07/30 11:39:06;;;;;;;5.38;1.90;;;25.30;84.00;;;;;;5013645;28;20018;-66
2023/07/30 11:41:33;;;;;;;5.68;1.80;;;25.30;82.60;;;;;;5011898;28;20722;-66
2023/07/30 11:43:59;;;;;;;5.13;1.77;;;25.30;83.50;;;;;;5012808;28;20038;-67
2023/07/30 11:46:25;;;;;;;3.58;1.65;;;25.20;85.70;;;;;;5013656;28;20038;-67
2023/07/30 11:48:52;;;;;;;2.78;1.65;;;25.20;87.20;;;;;;5012602;28;20504;-67
2023/07/30 11:51:29;;;;;;;2.35;1.50;;;25.30;87.50;;;;;;5018965;28;20041;-67
2023/07/30 11:54:00;;;;;;;4.93;1.80;;;25.30;88.70;;;;;;5011725;28;20045;-66
2023/07/30 11:56:28;;;;;;;3.88;1.65;;;25.40;83.00;;;;;;5014971;28;20497;-66
2023/07/30 11:58:58;;;;;;;5.10;1.80;;;25.30;85.90;;;;;;5008007;28;20091;-66
2023/07/30 12:01:25;;;;;;;7.32;2.53;;;25.30;82.00;;;;;;5013044;28;20594;-66
2023/07/30 12:03:54;;;;;;;6.38;1.90;;;25.40;82.00;;;;;;5006968;28;20030;-66
2023/07/30 12:06:20;;;;;;;2.65;1.90;;;25.30;78.00;;;;;;5015996;28;20159;-67
2023/07/30 12:08:49;;;;;;;4.25;2.13;;;25.20;81.40;;;;;;5011320;28;20051;-66
2023/07/30 12:11:18;;;;;;;5.30;1.88;;;25.20;79.40;;;;;;5008006;28;20037;-67
2023/07/30 12:13:50;;;;;;;5.55;1.70;;;25.30;83.40;;;;;;5006450;28;20054;-66
2023/07/30 12:16:16;;;;;;;5.47;2.03;;;25.30;83.90;;;;;;5005773;28;20033;-67
2023/07/30 12:18:43;;;;;;;4.90;1.85;;;25.50;80.10;;;;;;5006556;28;20054;-67
2023/07/30 12:21:10;;;;;;;4.43;1.65;;;25.50;82.20;;;;;;5009261;28;20041;-67
2023/07/30 12:23:38;;;;;;;3.33;1.90;;;25.50;78.60;;;;;;5005709;28;20084;-67
2023/07/30 12:26:06;;;;;;;3.95;1.58;;;25.50;80.90;;;;;;5003243;28;20029;-67
2023/07/30 12:28:34;;;;;;;3.30;1.90;;;25.60;77.20;;;;;;5015321;28;20600;-67
2023/07/30 12:31:00;;;;;;;4.38;1.70;;;25.60;75.50;;;;;;5011773;28;20444;-66
2023/07/30 12:33:26;;;;;;;4.70;1.75;;;25.70;78.40;;;;;;4995158;28;20593;-66
2023/07/30 12:35:52;;;;;;;4.55;2.28;;;25.70;79.60;;;;;;5010362;28;20039;-66
2023/07/30 12:38:18;;;;;;;3.88;1.80;;;25.70;81.40;;;;;;5006926;28;20101;-66
2023/07/30 12:40:44;;;;;;;3.63;1.75;;;25.80;82.70;;;;;;5009568;28;20498;-66
2023/07/30 12:43:10;;;;;;;3.55;1.77;;;25.80;77.70;;;;;;5009469;28;20730;-67
2023/07/30 12:45:36;;;;;;;2.80;1.73;;;25.90;76.00;;;;;;5023996;28;20127;-67
2023/07/30 12:48:02;;;;;;;2.38;1.60;;;25.90;76.40;;;;;;5003040;28;20029;-66